Time;durP1;ratioP1;P1;durP2;ratioP2;P2;SDS_P1;SDS_P2;PMS_P1;PMS_P2;Temp;Humidity;BMP_temperature;BMP_pressure;BME280_temperature;BME280_humidity;BME280_pressure;Samples;Min_cycle;Max_cycle;Signal;HPM_P1;HPM_P2
2022/12/28 00:01:31;;;;;;;3.42;1.80;;;21.80;56.60;;;;;;5051060;28;20037;-68
2022/12/28 00:04:02;;;;;;;4.20;1.42;;;21.70;56.80;;;;;;5051159;28;20802;-68
2022/12/28 00:06:31;;;;;;;5.10;1.92;;;21.80;56.80;;;;;;5050617;28;20132;-67
2022/12/28 00:08:57;;;;;;;1.33;1.23;;;21.70;56.80;;;;;;5050459;28;20053;-67
2022/12/28 00:11:26;;;;;;;3.40;1.70;;;21.60;56.90;;;;;;5054545;28;20048;-68
2022/12/28 00:13:52;;;;;;;3.30;1.60;;;21.60;56.90;;;;;;5067596;28;20044;-68
2022/12/28 00:16:36;;;;;;;1.83;1.38;;;21.70;57.10;;;;;;5060098;28;20025;-68
2022/12/28 00:19:06;;;;;;;2.47;2.00;;;21.40;57.00;;;;;;5050922;28;20072;-67
2022/12/28 00:21:33;;;;;;;3.17;1.40;;;21.40;57.10;;;;;;5054322;28;20059;-68
2022/12/28 00:24:00;;;;;;;1.38;1.02;;;21.50;57.10;;;;;;5070918;28;20110;-67
2022/12/28 00:26:29;;;;;;;4.68;1.52;;;21.50;57.20;;;;;;5054029;28;20366;-67
2022/12/28 00:28:55;;;;;;;4.15;1.80;;;21.50;57.20;;;;;;5050734;28;20119;-68
2022/12/28 00:31:21;;;;;;;4.72;1.77;;;21.60;57.00;;;;;;5017587;28;20219;-68
2022/12/28 00:33:47;;;;;;;2.50;1.02;;;21.50;57.00;;;;;;5050796;28;20137;-67
2022/12/28 00:36:13;;;;;;;1.55;1.10;;;21.50;56.90;;;;;;5014157;28;20045;-67
2022/12/28 00:38:41;;;;;;;1.88;1.33;;;21.50;56.90;;;;;;5050643;28;20063;-67
2022/12/28 00:41:08;;;;;;;4.88;1.40;;;21.50;56.80;;;;;;5035045;28;20041;-67
2022/12/28 00:43:35;;;;;;;2.67;1.40;;;21.50;56.80;;;;;;5050279;28;20429;-67
2022/12/28 00:46:01;;;;;;;2.65;1.42;;;21.50;56.80;;;;;;5050747;28;20052;-67
2022/12/28 00:48:28;;;;;;;2.35;1.75;;;21.60;56.80;;;;;;5050158;28;20036;-68
2022/12/28 00:51:10;;;;;;;1.92;1.30;;;21.50;56.80;;;;;;5028959;28;20050;-68
2022/12/28 00:53:36;;;;;;;2.40;1.40;;;21.50;56.80;;;;;;5052575;28;20126;-68
2022/12/28 00:56:13;;;;;;;2.47;1.13;;;21.50;56.70;;;;;;5064670;28;20400;-67
2022/12/28 00:58:39;;;;;;;1.20;1.10;;;21.50;56.60;;;;;;5070541;28;20060;-67
2022/12/28 01:01:10;;;;;;;1.92;1.27;;;21.40;56.50;;;;;;5037670;28;20025;-67
2022/12/28 01:03:36;;;;;;;2.17;1.10;;;21.40;56.60;;;;;;5050352;28;20033;-68
2022/12/28 01:06:06;;;;;;;3.65;1.20;;;21.40;56.60;;;;;;5054384;28;20048;-67
2022/12/28 01:08:34;;;;;;;4.65;1.40;;;21.40;56.70;;;;;;5055199;28;20079;-68
2022/12/28 01:11:07;;;;;;;3.67;1.73;;;21.40;56.70;;;;;;5039547;28;20124;-67
2022/12/28 01:13:33;;;;;;;1.15;1.00;;;21.40;56.70;;;;;;5031343;28;20107;-67
2022/12/28 01:15:59;;;;;;;1.58;1.10;;;21.30;56.70;;;;;;5015034;28;20497;-68
2022/12/28 01:18:25;;;;;;;4.65;1.20;;;21.30;56.80;;;;;;5031619;28;20053;-67
2022/12/28 01:20:51;;;;;;;2.40;1.40;;;21.40;56.70;;;;;;5039880;28;20815;-67
2022/12/28 01:23:17;;;;;;;2.47;1.23;;;21.40;56.70;;;;;;5034818;28;20049;-68
2022/12/28 01:25:43;;;;;;;3.33;1.30;;;21.30;56.70;;;;;;5027014;28;20091;-67
2022/12/28 01:28:09;;;;;;;3.30;1.30;;;21.30;56.70;;;;;;5014753;28;20115;-68
2022/12/28 01:30:35;;;;;;;2.33;1.10;;;21.30;56.70;;;;;;5030779;28;20064;-68
2022/12/28 01:33:01;;;;;;;1.65;1.02;;;21.30;56.60;;;;;;4998682;28;20040;-68
2022/12/28 01:35:27;;;;;;;1.42;1.00;;;21.20;56.40;;;;;;5014281;28;20041;-67
2022/12/28 01:37:55;;;;;;;2.78;1.35;;;21.20;56.50;;;;;;5031158;28;20044;-67
2022/12/28 01:40:21;;;;;;;2.22;1.33;;;21.20;56.40;;;;;;5032425;28;20045;-68
2022/12/28 01:42:47;;;;;;;2.20;1.05;;;21.20;56.50;;;;;;5031866;28;20144;-67
2022/12/28 01:45:21;;;;;;;1.33;1.17;;;21.20;56.50;;;;;;5050872;28;20143;-67
2022/12/28 01:47:51;;;;;;;2.22;1.60;;;21.30;56.50;;;;;;5053499;28;20067;-67
2022/12/28 01:50:23;;;;;;;2.20;0.98;;;21.20;56.30;;;;;;5068012;28;20107;-67
2022/12/28 01:52:58;;;;;;;1.35;1.10;;;21.30;56.40;;;;;;5024851;28;20099;-67
2022/12/28 01:55:38;;;;;;;1.70;1.30;;;21.20;56.20;;;;;;5035477;28;20589;-67
2022/12/28 01:58:27;;;;;;;2.38;1.85;;;21.20;56.10;;;;;;5035385;28;20033;-67
2022/12/28 02:00:53;;;;;;;2.97;1.15;;;21.20;56.00;;;;;;5035583;28;20040;-68
2022/12/28 02:03:24;;;;;;;2.33;1.58;;;21.20;56.00;;;;;;5040978;28;20045;-67
2022/12/28 02:05:54;;;;;;;2.15;1.38;;;21.20;56.00;;;;;;5053101;28;20442;-67
2022/12/28 02:08:26;;;;;;;2.42;1.25;;;21.20;55.90;;;;;;5052454;28;20045;-67
2022/12/28 02:10:53;;;;;;;3.90;1.60;;;21.20;56.10;;;;;;5060884;28;20067;-67
2022/12/28 02:13:21;;;;;;;2.20;1.50;;;21.10;56.10;;;;;;5036565;28;20033;-67
2022/12/28 02:15:48;;;;;;;1.92;1.00;;;21.10;56.20;;;;;;5033580;28;20064;-68
2022/12/28 02:18:17;;;;;;;3.25;1.67;;;21.00;56.00;;;;;;5053188;28;20080;-66
2022/12/28 02:21:13;;;;;;;1.75;1.30;;;21.00;56.10;;;;;;5056378;28;20027;-67
2022/12/28 02:23:48;;;;;;;2.42;1.38;;;20.90;56.20;;;;;;5053118;28;20047;-67
2022/12/28 02:26:46;;;;;;;1.95;1.00;;;20.90;56.20;;;;;;5037086;28;20090;-68
2022/12/28 02:29:14;;;;;;;1.70;1.30;;;20.80;56.20;;;;;;5052619;28;20036;-68
2022/12/28 02:31:55;;;;;;;1.85;1.25;;;21.00;56.20;;;;;;5010084;28;20045;-67
2022/12/28 02:34:32;;;;;;;2.80;1.20;;;21.00;56.10;;;;;;4993987;28;20153;-68
2022/12/28 02:37:04;;;;;;;2.10;1.30;;;20.80;56.10;;;;;;4994660;28;20092;-67
2022/12/28 02:39:39;;;;;;;1.95;1.63;;;20.90;56.10;;;;;;5009647;28;20080;-68
2022/12/28 02:42:08;;;;;;;2.05;1.25;;;20.90;55.90;;;;;;5014661;28;20098;-67
2022/12/28 02:50:15;;;;;;;5.25;1.58;;;20.80;55.60;;;;;;4964400;28;20035;-67
2022/12/28 02:52:46;;;;;;;3.42;1.40;;;20.80;55.70;;;;;;4954480;28;20563;-68
2022/12/28 02:58:23;;;;;;;3.20;1.58;;;20.70;55.60;;;;;;4952690;28;20047;-67
2022/12/28 03:01:14;;;;;;;2.53;1.70;;;20.80;55.60;;;;;;4968537;28;20027;-67
2022/12/28 03:03:44;;;;;;;2.13;1.50;;;21.00;55.50;;;;;;4953811;28;20042;-68
2022/12/28 03:09:07;;;;;;;2.40;1.40;;;20.90;55.40;;;;;;5013036;28;20065;-67
2022/12/28 03:11:46;;;;;;;3.60;1.38;;;20.80;55.30;;;;;;5048334;28;20060;-67
2022/12/28 03:14:36;;;;;;;3.55;1.60;;;20.80;55.10;;;;;;5044031;28;20036;-67
2022/12/28 03:31:20;;;;;;;5.65;1.60;;;20.70;55.10;;;;;;4993146;28;20057;-67
2022/12/28 03:34:05;;;;;;;2.85;1.30;;;20.70;55.10;;;;;;4991690;28;20072;-68
2022/12/28 03:36:40;;;;;;;3.30;1.90;;;20.60;55.10;;;;;;5008657;28;20069;-67
2022/12/28 03:39:09;;;;;;;3.03;1.90;;;20.60;55.00;;;;;;4986556;28;20053;-68
2022/12/28 03:41:46;;;;;;;3.17;1.65;;;20.70;55.30;;;;;;5007005;28;20116;-68
2022/12/28 03:44:32;;;;;;;;;;;20.60;55.10;;;;;;5027853;28;20052;-68
2022/12/28 03:47:10;;;;;;;1.58;1.27;;;20.50;55.10;;;;;;5012328;28;20007;-67
2022/12/28 03:49:38;;;;;;;4.50;1.65;;;20.60;55.00;;;;;;5012257;28;20096;-67
2022/12/28 03:52:06;;;;;;;4.00;1.60;;;20.60;54.90;;;;;;5021084;28;20042;-68
2022/12/28 03:54:33;;;;;;;2.22;1.23;;;20.60;54.70;;;;;;5054410;28;20182;-67
2022/12/28 03:56:59;;;;;;;3.00;1.55;;;20.70;54.60;;;;;;5088292;28;20036;-68
2022/12/28 03:59:30;;;;;;;2.50;1.60;;;20.60;54.40;;;;;;5081873;28;20416;-68
2022/12/28 04:01:57;;;;;;;4.95;1.20;;;20.70;54.50;;;;;;5068214;28;20040;-67
2022/12/28 04:04:23;;;;;;;1.40;1.20;;;20.60;54.40;;;;;;5064839;28;20617;-68
2022/12/28 04:06:49;;;;;;;2.55;1.65;;;20.60;54.50;;;;;;5050873;28;20098;-68
2022/12/28 04:09:16;;;;;;;1.98;1.38;;;20.50;54.60;;;;;;5068353;28;20135;-67
2022/12/28 04:11:41;;;;;;;2.45;1.52;;;20.60;54.50;;;;;;5045365;28;20144;-67
2022/12/28 04:14:14;;;;;;;5.32;1.60;;;20.40;54.50;;;;;;5049211;28;20109;-68
2022/12/28 04:16:42;;;;;;;3.65;1.80;;;20.60;54.50;;;;;;5051215;28;20043;-68
2022/12/28 04:19:13;;;;;;;2.90;1.55;;;20.60;54.30;;;;;;5051790;28;20067;-68
2022/12/28 04:21:39;;;;;;;2.70;1.50;;;20.50;54.20;;;;;;5051587;28;20072;-67
2022/12/28 04:24:05;;;;;;;2.80;1.52;;;20.60;54.10;;;;;;5050682;28;20028;-67
2022/12/28 04:26:31;;;;;;;4.13;2.00;;;20.50;54.00;;;;;;5051298;28;20045;-68
2022/12/28 04:29:00;;;;;;;4.72;2.30;;;20.50;54.00;;;;;;5039489;28;20102;-67
2022/12/28 04:31:52;;;;;;;4.75;2.00;;;20.60;54.00;;;;;;5065273;28;20051;-68
2022/12/28 04:34:20;;;;;;;5.40;2.00;;;20.60;54.10;;;;;;5088979;28;20051;-68
2022/12/28 04:36:57;;;;;;;2.58;1.85;;;20.70;54.10;;;;;;5074847;28;20036;-68
2022/12/28 04:39:23;;;;;;;5.28;1.80;;;20.60;53.90;;;;;;5033028;28;20045;-67
2022/12/28 04:41:49;;;;;;;4.05;1.73;;;20.60;53.90;;;;;;5070286;28;20041;-68
2022/12/28 04:44:15;;;;;;;2.47;2.00;;;20.50;53.90;;;;;;5072935;28;20032;-67
2022/12/28 04:46:41;;;;;;;3.78;2.20;;;20.40;53.80;;;;;;5070715;28;20041;-68
2022/12/28 04:49:07;;;;;;;3.83;1.95;;;20.40;54.00;;;;;;5078292;28;20032;-67
2022/12/28 04:51:34;;;;;;;2.45;2.13;;;20.40;54.00;;;;;;5082926;28;20034;-67
2022/12/28 04:54:00;;;;;;;5.43;2.38;;;20.40;54.10;;;;;;5089627;28;20052;-67
2022/12/28 04:56:26;;;;;;;7.20;2.38;;;20.30;54.10;;;;;;5094719;28;20034;-67
2022/12/28 04:58:57;;;;;;;6.03;2.50;;;20.30;54.20;;;;;;5088996;28;20494;-67
2022/12/28 05:01:23;;;;;;;5.20;1.98;;;20.30;54.20;;;;;;5075247;28;20062;-67
2022/12/28 05:03:52;;;;;;;4.50;2.47;;;20.30;54.20;;;;;;5068857;28;20043;-67
2022/12/28 05:06:20;;;;;;;7.30;2.15;;;20.20;54.10;;;;;;5088224;28;20047;-68
2022/12/28 05:08:47;;;;;;;5.25;2.65;;;20.20;54.00;;;;;;5080344;28;20381;-68
2022/12/28 05:11:19;;;;;;;3.95;2.30;;;20.30;54.00;;;;;;5070208;28;20086;-68
2022/12/28 05:13:45;;;;;;;2.70;2.08;;;20.20;53.90;;;;;;5073287;28;20044;-68
2022/12/28 05:16:16;;;;;;;7.55;2.53;;;20.30;53.90;;;;;;5085662;28;20032;-67
2022/12/28 05:18:43;;;;;;;5.82;2.13;;;20.30;53.90;;;;;;5071197;28;20127;-67
2022/12/28 05:21:14;;;;;;;5.15;2.88;;;20.30;53.90;;;;;;5066465;28;20107;-68
2022/12/28 05:23:40;;;;;;;3.55;2.28;;;20.30;53.90;;;;;;5067617;28;20533;-68
2022/12/28 05:26:10;;;;;;;5.53;2.83;;;20.20;53.90;;;;;;5066422;28;20047;-68
2022/12/28 05:28:36;;;;;;;4.13;2.47;;;20.10;54.00;;;;;;5065529;28;20124;-67
2022/12/28 05:31:05;;;;;;;4.72;2.00;;;20.00;53.90;;;;;;5067533;28;20048;-68
2022/12/28 05:33:32;;;;;;;3.10;1.70;;;20.20;54.00;;;;;;5067674;28;20067;-67
2022/12/28 05:36:06;;;;;;;6.78;2.35;;;20.30;54.00;;;;;;5066740;28;20040;-68
2022/12/28 05:38:32;;;;;;;3.58;1.77;;;20.20;53.80;;;;;;5066948;28;20473;-67
2022/12/28 05:41:28;;;;;;;3.45;1.95;;;20.20;53.70;;;;;;5066639;28;20047;-68
2022/12/28 05:43:56;;;;;;;6.20;2.38;;;20.30;53.60;;;;;;4985192;28;20031;-67
2022/12/28 05:46:25;;;;;;;4.57;2.13;;;20.30;53.60;;;;;;4988520;28;20042;-67
2022/12/28 05:48:51;;;;;;;3.78;2.00;;;20.30;53.40;;;;;;4955409;28;20076;-68
2022/12/28 05:51:20;;;;;;;3.78;2.10;;;20.20;53.30;;;;;;4993404;28;20517;-67
2022/12/28 05:53:46;;;;;;;2.65;1.92;;;20.30;53.30;;;;;;5013939;28;20143;-68
2022/12/28 05:56:15;;;;;;;3.78;2.00;;;20.30;53.30;;;;;;5026535;28;20375;-68
2022/12/28 05:58:42;;;;;;;5.65;2.88;;;20.30;53.10;;;;;;4994881;28;20117;-67
2022/12/28 06:01:13;;;;;;;2.58;1.63;;;20.40;53.10;;;;;;5018646;28;20053;-67
2022/12/28 06:03:39;;;;;;;2.65;1.92;;;20.30;53.20;;;;;;4993751;28;20041;-67
2022/12/28 06:06:10;;;;;;;3.33;2.35;;;20.30;53.20;;;;;;5009826;28;20057;-68
2022/12/28 06:08:38;;;;;;;2.92;2.00;;;20.30;53.20;;;;;;5012765;28;20430;-68
2022/12/28 06:11:07;;;;;;;3.47;2.10;;;20.30;53.60;;;;;;5018747;28;20042;-67
2022/12/28 06:13:33;;;;;;;3.63;2.20;;;20.30;53.20;;;;;;5010416;28;20052;-68
2022/12/28 06:16:21;;;;;;;1.80;1.70;;;20.30;50.60;;;;;;5021215;28;20041;-69
2022/12/28 06:18:48;;;;;;;3.67;1.88;;;20.30;52.90;;;;;;5028892;28;20045;-68
2022/12/28 06:21:19;;;;;;;4.80;2.40;;;20.50;45.30;;;;;;5073713;28;20649;-69
2022/12/28 06:23:45;;;;;;;4.35;2.20;;;20.50;45.70;;;;;;5086172;28;20036;-70
2022/12/28 06:26:14;;;;;;;3.60;2.75;;;20.60;44.80;;;;;;5092957;28;20035;-69
2022/12/28 06:28:41;;;;;;;6.43;2.50;;;20.70;44.90;;;;;;5082920;28;20166;-69
2022/12/28 06:31:15;;;;;;;7.35;3.30;;;20.70;45.00;;;;;;5061425;28;20032;-70
2022/12/28 06:33:42;;;;;;;8.63;2.65;;;20.70;45.20;;;;;;5077862;28;20076;-68
2022/12/28 06:36:37;;;;;;;6.85;3.70;;;20.80;45.60;;;;;;5081605;28;20098;-71
2022/12/28 06:39:06;;;;;;;9.05;3.85;;;20.80;45.00;;;;;;5081826;28;20047;-69
2022/12/28 06:41:32;;;;;;;6.80;4.30;;;20.90;47.90;;;;;;5075351;28;20029;-69
2022/12/28 06:43:58;;;;;;;6.45;3.88;;;20.90;48.00;;;;;;5079435;28;20405;-68
2022/12/28 06:46:27;;;;;;;4.45;3.55;;;21.00;47.50;;;;;;5077720;28;20124;-70
2022/12/28 06:48:53;;;;;;;6.28;3.47;;;20.90;45.60;;;;;;5094628;28;20035;-68
2022/12/28 06:51:22;;;;;;;10.93;3.90;;;21.00;44.40;;;;;;5074094;28;20032;-69
2022/12/28 06:53:49;;;;;;;9.27;3.95;;;21.00;57.10;;;;;;5063279;28;20127;-69
2022/12/28 06:56:22;;;;;;;6.30;3.55;;;21.20;58.00;;;;;;5078081;28;20024;-70
2022/12/28 06:58:49;;;;;;;;;;;21.20;58.00;;;;;;5090700;28;20036;-68
2022/12/28 07:01:33;;;;;;;4.53;2.58;;;21.20;61.80;;;;;;5080407;28;20387;-67
2022/12/28 07:04:01;;;;;;;7.78;3.60;;;21.20;59.60;;;;;;5072323;28;20032;-67
2022/12/28 07:06:28;;;;;;;4.47;2.72;;;21.30;58.30;;;;;;5075215;28;20040;-67
2022/12/28 07:08:59;;;;;;;6.70;2.72;;;21.60;58.10;;;;;;5062379;28;20090;-69
2022/12/28 07:11:25;;;;;;;8.23;3.75;;;21.60;59.60;;;;;;5062699;28;20052;-67
2022/12/28 07:13:51;;;;;;;5.38;3.15;;;21.60;59.80;;;;;;5051957;28;20043;-66
2022/12/28 07:16:22;;;;;;;5.25;2.60;;;21.80;58.30;;;;;;5063375;28;20121;-69
2022/12/28 07:18:49;;;;;;;5.13;3.53;;;21.90;57.40;;;;;;5064341;28;20067;-69
2022/12/28 07:21:21;;;;;;;4.65;2.65;;;22.00;56.50;;;;;;5052445;28;20286;-70
2022/12/28 07:23:49;;;;;;;3.47;2.25;;;22.00;55.80;;;;;;5054290;28;20020;-68
2022/12/28 07:26:19;;;;;;;4.63;2.85;;;22.00;55.10;;;;;;5057923;28;20031;-67
2022/12/28 07:28:47;;;;;;;4.65;3.13;;;22.00;54.50;;;;;;5015460;28;20029;-67
2022/12/28 07:31:24;;;;;;;5.68;2.42;;;22.00;54.00;;;;;;5051363;28;20029;-68
2022/12/28 07:33:52;;;;;;;13.88;4.70;;;22.20;53.70;;;;;;5064187;28;20082;-68
2022/12/28 07:36:19;;;;;;;14.48;5.65;;;22.20;53.50;;;;;;5061497;28;20495;-67
2022/12/28 07:38:45;;;;;;;12.65;6.45;;;22.20;49.10;;;;;;5048450;28;20552;-68
2022/12/28 07:41:18;;;;;;;13.63;5.75;;;22.10;52.60;;;;;;5069467;28;20554;-69
2022/12/28 07:43:44;;;;;;;8.30;4.65;;;21.90;54.80;;;;;;5071279;28;20028;-68
2022/12/28 07:46:12;;;;;;;11.45;5.63;;;21.70;56.00;;;;;;5064807;28;20017;-66
2022/12/28 07:48:40;;;;;;;8.38;5.40;;;21.60;57.30;;;;;;5035891;28;20043;-67
2022/12/28 07:51:15;;;;;;;11.00;5.13;;;21.50;58.40;;;;;;5068070;28;20097;-67
2022/12/28 07:53:44;;;;;;;14.43;5.13;;;21.50;58.70;;;;;;5058449;28;20075;-67
2022/12/28 07:56:10;;;;;;;14.00;5.10;;;21.30;59.00;;;;;;5057011;28;20543;-67
2022/12/28 07:58:56;;;;;;;11.52;4.68;;;21.40;59.80;;;;;;5047814;28;20044;-67
2022/12/28 08:01:25;;;;;;;8.45;5.03;;;21.30;59.50;;;;;;5018504;28;20071;-67
2022/12/28 08:03:56;;;;;;;11.02;4.93;;;21.40;60.10;;;;;;5021807;28;20086;-67
2022/12/28 08:06:23;;;;;;;11.60;4.47;;;21.10;59.90;;;;;;5009396;28;20135;-68
2022/12/28 08:08:55;;;;;;;12.93;4.38;;;21.20;59.90;;;;;;5035528;28;20072;-68
2022/12/28 08:11:23;;;;;;;6.95;4.20;;;21.10;59.80;;;;;;5063478;28;20091;-70
2022/12/28 08:13:52;;;;;;;7.68;3.67;;;21.20;60.00;;;;;;5048455;28;20150;-69
2022/12/28 08:16:20;;;;;;;7.43;5.32;;;21.20;60.20;;;;;;5052530;28;20052;-69
2022/12/28 08:18:47;;;;;;;14.43;5.93;;;21.10;60.60;;;;;;5049683;28;20029;-68
2022/12/28 08:21:22;;;;;;;9.98;5.80;;;21.00;59.60;;;;;;5051759;28;20040;-68
2022/12/28 08:23:49;;;;;;;13.48;6.07;;;21.20;60.80;;;;;;5050660;28;20043;-68
2022/12/28 08:26:20;;;;;;;7.57;4.53;;;21.20;61.70;;;;;;5053083;28;20498;-69
2022/12/28 08:28:50;;;;;;;8.40;4.65;;;21.20;61.30;;;;;;5048220;28;20025;-69
2022/12/28 08:31:21;;;;;;;7.05;4.70;;;21.40;60.60;;;;;;5049125;28;20045;-68
2022/12/28 08:33:47;;;;;;;7.85;4.43;;;21.60;60.40;;;;;;5070730;28;20079;-68
2022/12/28 08:36:14;;;;;;;8.40;4.93;;;21.60;59.80;;;;;;5082429;28;20075;-69
2022/12/28 08:38:42;;;;;;;12.73;7.10;;;21.80;59.50;;;;;;5090972;28;20097;-68
2022/12/28 08:41:18;;;;;;;9.55;5.57;;;21.90;58.50;;;;;;5090934;28;20110;-68
2022/12/28 08:43:44;;;;;;;12.88;5.15;;;21.80;59.60;;;;;;5088878;28;20032;-68
2022/12/28 08:46:13;;;;;;;10.25;5.97;;;21.90;58.70;;;;;;5082008;28;20148;-69
2022/12/28 08:48:39;;;;;;;10.55;5.38;;;21.90;59.20;;;;;;5056323;28;20040;-69
2022/12/28 08:51:12;;;;;;;13.77;5.47;;;22.00;59.30;;;;;;5082151;28;20064;-69
2022/12/28 08:53:39;;;;;;;;;;;22.00;59.50;;;;;;5084076;28;20369;-68
2022/12/28 08:56:09;;;;;;;10.70;5.70;;;21.90;60.20;;;;;;5090684;28;20579;-69
2022/12/28 08:58:36;;;;;;;8.73;4.97;;;21.90;60.10;;;;;;5090684;28;20037;-69
2022/12/28 09:01:29;;;;;;;9.00;5.28;;;22.00;59.80;;;;;;5088390;28;20036;-68
2022/12/28 09:03:57;;;;;;;11.57;5.75;;;21.90;59.30;;;;;;5070400;28;20174;-69
2022/12/28 09:06:43;;;;;;;10.18;5.85;;;22.00;59.70;;;;;;5079486;28;20047;-68
2022/12/28 09:09:12;;;;;;;12.85;6.22;;;22.00;60.70;;;;;;5088277;28;20087;-69
2022/12/28 09:11:39;;;;;;;10.25;5.72;;;21.90;60.70;;;;;;5089872;28;20071;-68
2022/12/28 09:14:07;;;;;;;17.98;6.07;;;22.20;59.00;;;;;;5089048;28;20067;-69
2022/12/28 09:16:35;;;;;;;12.43;5.65;;;22.10;59.90;;;;;;5088512;28;20115;-69
2022/12/28 09:19:02;;;;;;;9.30;5.35;;;22.00;60.00;;;;;;5090770;28;20170;-68
2022/12/28 09:21:33;;;;;;;7.80;3.65;;;22.10;60.00;;;;;;5090638;28;20356;-69
2022/12/28 09:23:59;;;;;;;5.53;3.22;;;22.00;61.20;;;;;;5089277;28;20444;-69
2022/12/28 09:26:27;;;;;;;9.73;3.78;;;22.20;60.40;;;;;;5091872;28;20032;-69
2022/12/28 09:28:55;;;;;;;6.35;3.47;;;22.30;59.40;;;;;;5094023;28;20036;-68
2022/12/28 09:31:24;;;;;;;7.93;4.22;;;22.40;59.90;;;;;;5092736;28;20024;-70
2022/12/28 09:34:02;;;;;;;6.10;3.40;;;22.40;58.70;;;;;;5094042;28;20028;-69
2022/12/28 09:36:35;;;;;;;7.82;3.70;;;22.40;58.60;;;;;;5074607;28;20524;-69
2022/12/28 09:39:06;;;;;;;11.55;4.40;;;22.60;58.80;;;;;;5077301;28;20111;-69
2022/12/28 09:41:47;;;;;;;6.00;3.47;;;22.50;57.70;;;;;;5073875;28;20087;-69
2022/12/28 09:44:16;;;;;;;5.82;3.30;;;22.70;58.40;;;;;;5070052;28;20124;-69
2022/12/28 09:46:46;;;;;;;6.47;4.05;;;22.70;58.90;;;;;;5069496;28;20211;-68
2022/12/28 09:49:15;;;;;;;5.60;3.88;;;22.70;59.30;;;;;;5086840;28;20148;-69
2022/12/28 09:52:14;;;;;;;10.15;4.53;;;22.60;58.80;;;;;;5060030;28;20032;-69
2022/12/28 09:54:40;;;;;;;8.20;5.43;;;22.60;59.50;;;;;;4972078;28;20050;-69
2022/12/28 09:57:18;;;;;;;14.63;6.85;;;22.70;59.10;;;;;;4972008;28;20031;-68
2022/12/28 09:59:46;;;;;;;9.90;4.43;;;22.70;59.70;;;;;;4991586;28;20105;-69
2022/12/28 10:02:25;;;;;;;7.93;3.83;;;22.60;60.00;;;;;;4989818;28;20030;-68
2022/12/28 10:04:51;;;;;;;7.28;4.25;;;22.70;58.90;;;;;;4990673;28;20074;-69
2022/12/28 10:07:18;;;;;;;8.68;4.50;;;22.80;58.40;;;;;;4988205;28;20104;-68
2022/12/28 10:09:45;;;;;;;8.55;4.30;;;22.60;59.60;;;;;;4944421;28;20499;-69
2022/12/28 10:12:23;;;;;;;4.95;3.60;;;22.80;59.20;;;;;;4979701;28;20030;-69
2022/12/28 10:14:50;;;;;;;7.68;4.00;;;22.90;59.60;;;;;;4977917;28;20108;-69
2022/12/28 10:17:21;;;;;;;5.00;3.28;;;22.90;59.40;;;;;;5003616;28;20053;-69
2022/12/28 10:19:47;;;;;;;7.00;3.30;;;22.90;59.40;;;;;;5010231;28;20042;-68
2022/12/28 10:22:17;;;;;;;3.35;2.72;;;23.00;59.20;;;;;;5006389;28;20030;-68
2022/12/28 10:24:44;;;;;;;4.10;2.90;;;23.00;58.10;;;;;;4994441;28;20867;-66
2022/12/28 10:27:21;;;;;;;11.35;3.75;;;23.30;55.00;;;;;;5005880;28;20037;-68
2022/12/28 10:29:52;;;;;;;5.75;3.38;;;23.70;50.40;;;;;;4983844;28;20049;-68
2022/12/28 10:32:19;;;;;;;5.15;2.97;;;23.90;45.60;;;;;;5089651;28;20057;-65
2022/12/28 10:34:55;;;;;;;5.88;4.10;;;23.90;44.80;;;;;;5093079;28;20028;-69
2022/12/28 10:37:23;;;;;;;8.55;4.13;;;24.00;39.00;;;;;;5089040;28;20473;-68
2022/12/28 10:39:56;;;;;;;7.03;3.45;;;24.00;41.40;;;;;;5073274;28;20048;-70
2022/12/28 10:42:28;;;;;;;11.23;3.95;;;24.00;39.40;;;;;;5082152;28;20032;-67
2022/12/28 10:45:18;;;;;;;9.45;3.60;;;24.00;48.50;;;;;;5081857;28;20119;-68
2022/12/28 10:47:50;;;;;;;4.30;3.53;;;24.10;42.70;;;;;;5077625;28;20028;-67
2022/12/28 10:50:36;;;;;;;5.18;3.17;;;24.10;44.70;;;;;;5079804;28;20033;-69
2022/12/28 10:53:02;;;;;;;5.78;3.25;;;24.20;44.30;;;;;;5083252;28;20105;-70
2022/12/28 10:55:31;;;;;;;4.43;2.85;;;24.40;45.90;;;;;;5074830;28;20024;-71
2022/12/28 10:58:20;;;;;;;10.20;3.53;;;24.40;50.00;;;;;;5040062;28;20167;-72
2022/12/28 11:00:59;;;;;;;18.60;4.40;;;24.50;49.80;;;;;;5077996;28;20025;-72
2022/12/28 11:03:35;;;;;;;4.82;3.20;;;24.60;43.90;;;;;;5071033;28;20060;-72
2022/12/28 11:06:12;;;;;;;5.50;2.70;;;24.50;39.60;;;;;;5071240;28;20048;-71
2022/12/28 11:08:39;;;;;;;4.70;3.10;;;24.60;38.40;;;;;;5063763;28;20095;-70
2022/12/28 11:11:06;;;;;;;3.90;2.45;;;24.50;36.80;;;;;;5068149;28;20143;-71
2022/12/28 11:13:33;;;;;;;5.05;3.03;;;24.50;37.90;;;;;;5054343;28;20025;-72
2022/12/28 11:15:59;;;;;;;5.95;3.40;;;24.40;36.40;;;;;;5053460;28;20082;-73
2022/12/28 11:18:25;;;;;;;4.70;2.70;;;24.50;37.40;;;;;;5066342;28;20521;-72
2022/12/28 11:20:53;;;;;;;6.65;2.50;;;24.40;38.30;;;;;;5069080;28;20028;-73
2022/12/28 11:23:24;;;;;;;4.50;2.33;;;24.40;37.60;;;;;;5070509;28;20497;-70
2022/12/28 11:25:51;;;;;;;6.80;3.70;;;24.50;45.30;;;;;;5064345;28;20036;-72
2022/12/28 11:28:21;;;;;;;3.28;2.35;;;24.50;52.30;;;;;;5068720;28;20086;-71
2022/12/28 11:30:49;;;;;;;6.75;2.88;;;24.60;53.80;;;;;;5070895;28;20534;-74
2022/12/28 11:33:47;;;;;;;3.08;2.22;;;24.70;54.90;;;;;;5039254;28;20032;-73
2022/12/28 11:36:25;;;;;;;4.13;2.03;;;24.60;55.60;;;;;;5070421;28;20127;-73
2022/12/28 11:38:55;;;;;;;3.88;1.85;;;24.70;56.50;;;;;;5071645;28;20032;-72
2022/12/28 11:41:24;;;;;;;3.35;2.28;;;24.70;56.60;;;;;;5010610;28;20098;-74
2022/12/28 11:43:53;;;;;;;2.88;2.08;;;24.60;56.30;;;;;;5059996;28;20593;-73
2022/12/28 11:46:19;;;;;;;2.58;1.63;;;24.50;56.40;;;;;;5060464;28;20488;-72
2022/12/28 11:48:59;;;;;;;3.50;1.90;;;24.50;56.40;;;;;;5071077;28;20032;-72
2022/12/28 11:51:27;;;;;;;1.98;1.50;;;24.50;56.30;;;;;;5059538;28;20040;-71
2022/12/28 11:54:24;;;;;;;1.83;1.20;;;24.40;56.00;;;;;;5051455;28;20029;-70
2022/12/28 11:56:50;;;;;;;2.67;1.60;;;24.50;54.10;;;;;;5062229;28;20063;-73
2022/12/28 11:59:26;;;;;;;53.83;12.07;;;24.40;47.30;;;;;;5066202;28;20482;-74
2022/12/28 12:01:57;;;;;;;4.32;2.20;;;24.70;52.10;;;;;;5054882;28;20044;-73
2022/12/28 12:04:30;;;;;;;4.63;2.28;;;24.70;42.10;;;;;;5063007;28;20143;-74
2022/12/28 12:06:56;;;;;;;;;;;24.70;51.90;;;;;;5033681;28;20037;-75
2022/12/28 12:09:22;;;;;;;4.57;1.75;;;24.70;54.30;;;;;;5054073;28;19931;-74
2022/12/28 12:11:50;;;;;;;2.47;1.05;;;24.70;53.30;;;;;;5068452;28;20085;-71
2022/12/28 12:14:23;;;;;;;1.58;1.35;;;24.70;55.60;;;;;;5055585;28;20040;-73
2022/12/28 12:16:51;;;;;;;;;;;24.70;55.80;;;;;;5052199;28;20462;-72
2022/12/28 12:19:30;;;;;;;2.33;1.38;;;24.70;56.10;;;;;;5050268;28;20304;-72
2022/12/28 12:22:05;;;;;;;2.17;1.40;;;24.60;56.10;;;;;;5051134;28;20033;-72
2022/12/28 12:25:08;;;;;;;1.90;1.42;;;24.70;56.50;;;;;;5064224;28;20071;-72
2022/12/28 12:27:40;;;;;;;2.80;1.20;;;24.60;56.70;;;;;;5061454;28;20045;-73
2022/12/28 12:30:14;;;;;;;2.42;1.48;;;24.60;56.70;;;;;;5054895;28;20029;-75
2022/12/28 12:32:55;;;;;;;3.28;1.30;;;24.70;57.20;;;;;;5057402;28;20055;-75
2022/12/28 12:35:26;;;;;;;2.75;1.50;;;24.60;57.40;;;;;;5070868;28;20408;-73
2022/12/28 12:38:03;;;;;;;3.83;1.80;;;24.50;57.80;;;;;;5058053;28;20132;-72
2022/12/28 12:40:40;;;;;;;2.35;1.42;;;24.60;57.60;;;;;;5059480;28;20033;-74
2022/12/28 12:43:09;;;;;;;6.22;1.40;;;24.50;57.70;;;;;;5057419;28;20441;-75
2022/12/28 12:46:03;;;;;;;6.60;1.50;;;24.50;57.50;;;;;;5062180;28;20481;-75
2022/12/28 12:48:47;;;;;;;2.92;1.33;;;24.50;57.50;;;;;;5062951;28;20078;-72
2022/12/28 12:51:44;;;;;;;2.25;1.15;;;24.40;57.60;;;;;;5065439;28;20506;-73
2022/12/28 12:54:30;;;;;;;7.18;0.93;;;24.30;57.80;;;;;;5061279;28;20111;-72
2022/12/28 12:57:17;;;;;;;3.13;1.00;;;24.30;57.30;;;;;;5055545;28;20123;-73
2022/12/28 13:00:11;;;;;;;3.00;0.90;;;24.10;57.00;;;;;;5057188;28;20040;-73
2022/12/28 13:02:46;;;;;;;1.42;1.33;;;24.10;57.30;;;;;;5070746;28;20082;-73
2022/12/28 13:05:17;;;;;;;2.67;1.20;;;24.00;57.50;;;;;;5057170;28;20032;-73
2022/12/28 13:07:43;;;;;;;2.05;1.13;;;24.00;57.60;;;;;;5054927;28;20032;-73
2022/12/28 13:10:25;;;;;;;1.63;1.00;;;23.90;57.80;;;;;;5059609;28;20033;-72
2022/12/28 13:12:56;;;;;;;1.55;1.30;;;23.80;57.90;;;;;;5062209;28;20079;-72
2022/12/28 13:15:22;;;;;;;1.35;1.00;;;23.70;58.30;;;;;;5060163;28;20063;-73
2022/12/28 13:18:05;;;;;;;2.75;1.42;;;23.70;58.60;;;;;;5062018;28;20045;-73
2022/12/28 13:20:32;;;;;;;3.97;1.60;;;23.70;58.80;;;;;;5035225;28;20072;-73
2022/12/28 13:22:58;;;;;;;2.38;1.38;;;23.80;58.90;;;;;;5054144;28;20041;-75
2022/12/28 13:25:33;;;;;;;4.15;1.50;;;23.70;57.90;;;;;;5038819;28;20512;-70
2022/12/28 13:28:01;;;;;;;6.32;1.63;;;23.80;58.30;;;;;;5061146;28;20404;-73
2022/12/28 13:30:29;;;;;;;4.45;1.42;;;23.80;58.40;;;;;;5074020;28;20038;-72
2022/12/28 13:32:58;;;;;;;2.33;1.55;;;23.80;58.50;;;;;;5062088;28;20112;-72
2022/12/28 13:35:27;;;;;;;2.47;1.33;;;23.80;58.40;;;;;;5052913;28;20029;-75